Time;durP1;ratioP1;P1;durP2;ratioP2;P2;SDS_P1;SDS_P2;PMS_P1;PMS_P2;Temp;Humidity;BMP_temperature;BMP_pressure;BME280_temperature;BME280_humidity;BME280_pressure;Samples;Min_cycle;Max_cycle;Signal;HPM_P1;HPM_P2
2021/06/25 00:00:16;;;;;;;15.63;5.75;;;;;;;23.85;65.30;99432.13;1745213;81;21829;-42
2021/06/25 00:02:43;;;;;;;16.95;6.17;;;;;;;23.81;65.07;99433.64;1752257;80;21523;-42
2021/06/25 00:05:10;;;;;;;17.15;5.92;;;;;;;23.78;64.96;99430.36;1748370;82;21043;-42
2021/06/25 00:07:37;;;;;;;17.50;5.67;;;;;;;23.77;65.01;99434.34;1742869;80;21603;-42
2021/06/25 00:10:06;;;;;;;19.42;5.85;;;;;;;23.78;64.95;99430.97;1753247;81;21049;-42
2021/06/25 00:12:33;;;;;;;18.35;5.62;;;;;;;23.78;64.84;99424.83;1740889;81;21790;-42
2021/06/25 00:15:00;;;;;;;17.95;6.55;;;;;;;23.78;64.63;99423.44;1746198;80;21021;-42
2021/06/25 00:17:27;;;;;;;20.10;6.35;;;;;;;23.77;64.53;99424.66;1765787;81;21461;-42
2021/06/25 00:19:53;;;;;;;17.60;6.25;;;;;;;23.75;64.56;99427.11;1751509;80;21029;-42
2021/06/25 00:22:20;;;;;;;15.72;5.87;;;;;;;23.76;64.29;99416.81;1752007;81;21033;-42
2021/06/25 00:24:47;;;;;;;14.87;5.87;;;;;;;23.75;64.28;99416.04;1746726;81;21048;-42
2021/06/25 00:27:14;;;;;;;18.57;5.87;;;;;;;23.76;63.89;99412.05;1748435;82;21000;-42
2021/06/25 00:29:42;;;;;;;16.27;5.62;;;;;;;23.76;63.53;99410.67;1746950;81;21570;-42
2021/06/25 00:32:08;;;;;;;13.05;5.60;;;;;;;23.76;63.45;99414.83;1742699;82;21069;-42
2021/06/25 00:34:35;;;;;;;13.22;5.47;;;;;;;23.75;63.40;99416.04;1759970;80;21454;-42
2021/06/25 00:37:04;;;;;;;12.98;5.60;;;;;;;23.71;63.63;99418.16;1777273;80;21197;-42
2021/06/25 00:39:31;;;;;;;19.90;6.60;;;;;;;23.66;64.48;99424.26;1767033;80;20891;-42
2021/06/25 00:41:58;;;;;;;15.00;6.25;;;;;;;23.61;65.35;99428.97;1752401;80;21084;-42
2021/06/25 00:44:24;;;;;;;16.50;5.85;;;;;;;23.56;66.25;99425.38;1762606;80;21559;-42
2021/06/25 00:46:51;;;;;;;19.12;6.30;;;;;;;23.50;66.46;99420.84;1766661;80;21006;-42
2021/06/25 00:49:18;;;;;;;16.45;6.25;;;;;;;23.47;66.39;99407.91;1763806;80;21177;-42
2021/06/25 00:51:45;;;;;;;15.00;6.20;;;;;;;23.44;66.10;99399.84;1755027;80;21087;-42
2021/06/25 00:54:12;;;;;;;15.43;5.95;;;;;;;23.43;65.75;99401.06;1749249;80;21555;-42
2021/06/25 00:56:40;;;;;;;13.50;5.42;;;;;;;23.40;65.82;99397.81;1752064;80;21000;-42
2021/06/25 00:59:07;;;;;;;13.05;5.65;;;;;;;23.37;65.75;99391.19;1761115;80;21032;-42
2021/06/25 01:01:34;;;;;;;16.65;6.08;;;;;;;23.34;65.74;99394.05;1765247;80;21192;-42
2021/06/25 01:04:01;;;;;;;19.32;6.62;;;;;;;23.33;65.29;99389.75;1752235;80;21548;-42
2021/06/25 01:06:30;;;;;;;17.80;6.42;;;;;;;23.33;64.90;99396.03;1744958;80;21501;-42
2021/06/25 01:08:59;;;;;;;19.52;6.47;;;;;;;23.32;64.67;99389.59;1753921;80;21583;-42
2021/06/25 01:11:30;;;;;;;16.93;5.80;;;;;;;23.32;64.45;99392.35;1749767;80;20998;-42
2021/06/25 01:13:59;;;;;;;15.78;6.00;;;;;;;23.29;64.48;99398.15;1751203;80;21627;-42
2021/06/25 01:16:26;;;;;;;17.23;6.00;;;;;;;23.23;64.45;99392.25;1754641;80;21017;-42
2021/06/25 01:18:53;;;;;;;12.80;5.85;;;;;;;23.22;64.65;99392.86;1750773;80;21086;-42
2021/06/25 01:21:20;;;;;;;17.52;5.97;;;;;;;23.21;64.67;99387.77;1749548;80;20980;-42
2021/06/25 01:23:47;;;;;;;14.60;5.92;;;;;;;23.19;64.69;99387.45;1751596;80;21494;-42
2021/06/25 01:26:14;;;;;;;17.60;6.55;;;;;;;23.18;64.64;99392.81;1758055;80;21785;-42
2021/06/25 01:28:41;;;;;;;18.65;6.65;;;;;;;23.16;64.45;99386.94;1750802;80;21001;-42
2021/06/25 01:31:07;;;;;;;15.65;6.42;;;;;;;22.90;64.33;99357.12;1753351;80;21045;-42
2021/06/25 01:33:35;;;;;;;17.60;6.20;;;;;;;23.13;64.27;99387.84;1777469;80;21520;-42
2021/06/25 01:36:05;;;;;;;11.73;6.17;;;;;;;23.12;64.33;99386.28;1735760;80;21002;-42
2021/06/25 01:38:32;;;;;;;16.42;6.17;;;;;;;23.11;64.34;99383.34;1716306;81;21983;-42
2021/06/25 01:40:59;;;;;;;14.38;6.42;;;;;;;23.09;64.32;99376.11;1720252;80;21045;-42
2021/06/25 01:43:26;;;;;;;17.62;7.15;;;;;;;23.08;63.97;99372.57;1730277;80;20981;-42
2021/06/25 01:45:54;;;;;;;15.10;6.37;;;;;;;23.07;63.62;99370.24;1737667;80;21088;-42
2021/06/25 01:48:20;;;;;;;18.30;6.40;;;;;;;23.05;63.45;99369.90;1735230;80;21571;-42
2021/06/25 01:50:48;;;;;;;19.17;6.17;;;;;;;23.03;63.32;99367.59;1748765;80;21119;-42
2021/06/25 01:53:17;;;;;;;19.67;6.03;;;;;;;23.02;63.20;99370.80;1730598;80;21032;-42
2021/06/25 01:55:46;;;;;;;18.90;6.85;;;;;;;22.96;63.27;99369.97;1726171;80;21491;-42
2021/06/25 01:58:20;;;;;;;15.78;5.33;;;;;;;22.65;63.35;99333.02;1724899;80;21119;-42
2021/06/25 02:01:14;;;;;;;15.40;6.72;;;;;;;22.89;63.51;99378.50;1730971;80;21570;-42
2021/06/25 02:03:43;;;;;;;17.75;6.53;;;;;;;22.87;63.71;99385.06;1742210;80;21120;-42
2021/06/25 02:06:10;;;;;;;21.37;6.67;;;;;;;22.86;63.93;99391.80;1762827;80;21029;-42
2021/06/25 02:08:40;;;;;;;18.42;6.92;;;;;;;22.87;63.99;99395.34;1771155;80;20965;-42
2021/06/25 02:11:09;;;;;;;16.05;6.30;;;;;;;22.88;63.93;99403.20;1766534;80;21529;-42
2021/06/25 02:13:36;;;;;;;17.35;6.42;;;;;;;22.90;64.08;99403.52;1770558;80;21051;-42
2021/06/25 02:16:04;;;;;;;17.73;6.40;;;;;;;22.93;64.11;99408.79;1767270;80;21144;-42
2021/06/25 02:18:31;;;;;;;21.77;6.30;;;;;;;22.96;64.20;99414.20;1765795;80;21486;-42
2021/06/25 02:20:58;;;;;;;19.25;6.97;;;;;;;22.99;64.05;99413.94;1743777;80;21043;-42
2021/06/25 02:23:26;;;;;;;15.70;6.37;;;;;;;23.01;63.89;99412.10;1748196;80;20989;-42
2021/06/25 02:25:52;;;;;;;20.43;6.20;;;;;;;23.03;63.74;99411.06;1759736;80;20964;-42
2021/06/25 02:28:21;;;;;;;19.00;5.97;;;;;;;23.04;63.57;99408.47;1736231;82;21583;-42
2021/06/25 02:30:48;;;;;;;14.78;6.10;;;;;;;23.06;63.43;99410.16;1760134;80;20980;-42
2021/06/25 02:33:15;;;;;;;14.40;6.17;;;;;;;23.07;63.28;99406.19;1750307;80;21061;-42
2021/06/25 02:35:42;;;;;;;16.67;7.20;;;;;;;23.10;63.34;99403.91;1780229;80;21033;-42
2021/06/25 02:38:09;;;;;;;18.42;6.35;;;;;;;23.12;63.32;99400.88;1770588;80;21045;-42
2021/06/25 02:40:36;;;;;;;18.27;6.17;;;;;;;23.15;63.39;99403.36;1758766;80;21142;-42
2021/06/25 02:43:03;;;;;;;16.40;5.87;;;;;;;23.18;63.36;99394.97;1753225;80;21032;-42
2021/06/25 02:45:31;;;;;;;19.50;6.65;;;;;;;23.20;63.37;99390.36;1768511;80;21531;-42
2021/06/25 02:47:58;;;;;;;20.08;6.40;;;;;;;23.23;63.26;99399.17;1765898;80;21535;-42
2021/06/25 02:50:25;;;;;;;18.67;6.92;;;;;;;23.28;63.29;99402.77;1769338;81;21339;-42
2021/06/25 02:52:51;;;;;;;19.15;6.62;;;;;;;23.33;63.22;99403.59;1768942;81;21288;-42
2021/06/25 02:55:20;;;;;;;20.27;6.30;;;;;;;23.37;63.14;99404.24;1752138;80;21005;-42
2021/06/25 02:57:47;;;;;;;14.73;5.97;;;;;;;23.43;63.06;99396.91;1762975;80;21028;-42
2021/06/25 03:00:16;;;;;;;16.60;6.65;;;;;;;23.48;62.91;99399.14;1752564;80;21656;-42
2021/06/25 03:02:43;;;;;;;23.77;7.30;;;;;;;23.51;63.09;99401.04;1769902;80;21475;-42
2021/06/25 03:05:13;;;;;;;30.68;8.18;;;;;;;23.55;62.97;99398.92;1774895;80;21195;-42
2021/06/25 03:07:40;;;;;;;18.12;6.58;;;;;;;23.60;62.86;99397.58;1759801;80;21519;-42
2021/06/25 03:10:08;;;;;;;16.07;6.50;;;;;;;23.66;62.90;99395.80;1773983;80;20998;-42
2021/06/25 03:12:35;;;;;;;20.43;6.67;;;;;;;23.70;62.75;99390.91;1765251;80;21543;-42
2021/06/25 03:15:08;;;;;;;16.90;6.20;;;;;;;23.74;62.59;99388.19;1758922;80;21049;-42
2021/06/25 03:17:34;;;;;;;15.88;6.55;;;;;;;23.80;62.48;99385.02;1757662;80;21776;-42
2021/06/25 03:20:05;;;;;;;16.07;6.05;;;;;;;23.87;62.39;99391.54;1759176;80;20969;-42
2021/06/25 03:22:32;;;;;;;22.10;6.50;;;;;;;23.93;62.31;99389.11;1779083;80;20985;-42
2021/06/25 03:24:59;;;;;;;20.50;6.58;;;;;;;23.98;62.11;99392.70;1772403;80;20978;-42
2021/06/25 03:27:25;;;;;;;17.52;5.95;;;;;;;24.05;61.93;99384.76;1761616;80;21041;-42
2021/06/25 03:29:54;;;;;;;19.00;6.33;;;;;;;24.09;61.90;99378.48;1752629;80;21060;-42
2021/06/25 03:32:21;;;;;;;16.67;6.28;;;;;;;24.16;61.84;99374.05;1766224;80;20970;-42
2021/06/25 03:34:48;;;;;;;13.98;5.58;;;;;;;24.21;61.72;99371.51;1769262;80;20964;-42
2021/06/25 03:37:14;;;;;;;18.40;5.78;;;;;;;24.30;61.42;99371.42;1750958;82;21519;-42
2021/06/25 03:39:42;;;;;;;11.70;5.53;;;;;;;24.36;61.21;99362.06;1752428;80;21020;-42
2021/06/25 03:42:09;;;;;;;15.13;5.20;;;;;;;24.42;61.22;99353.94;1750935;81;21200;-42
2021/06/25 03:44:36;;;;;;;12.93;5.67;;;;;;;24.48;61.18;99348.75;1762485;80;21511;-42
2021/06/25 03:49:59;;;;;;;13.93;5.78;;;;;;;24.65;60.85;99337.58;1778874;79;22671;-42
2021/06/25 03:52:27;;;;;;;14.18;5.03;;;;;;;24.65;60.66;99339.58;1751848;80;20998;-42
2021/06/25 03:54:53;;;;;;;16.00;5.80;;;;;;;24.69;60.71;99350.69;1737824;81;21807;-42
2021/06/25 03:57:20;;;;;;;18.62;5.08;;;;;;;24.76;60.28;99351.65;1758980;80;20981;-42
2021/06/25 03:59:47;;;;;;;20.48;6.00;;;;;;;24.79;60.17;99354.88;1757557;80;21511;-42
2021/06/25 04:02:14;;;;;;;14.78;5.80;;;;;;;24.83;60.29;99355.55;1738081;80;21008;-42
2021/06/25 04:04:42;;;;;;;13.48;5.65;;;;;;;24.87;59.84;99347.88;1727948;80;20996;-42
2021/06/25 04:07:08;;;;;;;16.48;5.83;;;;;;;24.93;59.90;99346.06;1727348;80;21921;-42
2021/06/25 04:09:36;;;;;;;14.75;5.03;;;;;;;24.96;59.97;99345.14;1726813;83;20965;-42
2021/06/25 04:12:04;;;;;;;16.95;5.33;;;;;;;24.98;59.92;99339.91;1727693;80;21017;-42
2021/06/25 04:14:31;;;;;;;14.35;5.10;;;;;;;25.04;59.81;99338.84;1726718;82;21619;-42
2021/06/25 04:16:58;;;;;;;14.05;5.65;;;;;;;25.12;59.87;99336.56;1726885;83;21037;-42
2021/06/25 04:19:25;;;;;;;16.35;6.00;;;;;;;25.19;59.88;99343.20;1731682;82;21196;-42
2021/06/25 04:21:53;;;;;;;14.25;5.97;;;;;;;25.25;60.11;99338.59;1748442;82;20981;-42
2021/06/25 04:24:20;;;;;;;17.45;6.10;;;;;;;25.30;60.55;99342.15;1736967;80;20976;-42
2021/06/25 04:26:47;;;;;;;19.20;6.60;;;;;;;25.36;60.80;99346.48;1745996;80;21045;-42
2021/06/25 04:29:14;;;;;;;19.75;6.42;;;;;;;25.40;61.46;99348.49;1727706;80;21036;-42
2021/06/25 04:31:44;;;;;;;15.83;6.22;;;;;;;25.43;62.06;99352.50;1730084;80;21515;-42
2021/06/25 04:34:10;;;;;;;12.55;6.22;;;;;;;25.44;62.48;99349.88;1736753;80;21035;-42
2021/06/25 04:36:37;;;;;;;14.93;6.50;;;;;;;25.43;61.93;99360.83;1734904;80;21004;-42
2021/06/25 04:39:05;;;;;;;15.80;5.80;;;;;;;25.42;60.75;99360.66;1756724;81;21005;-42
2021/06/25 04:41:34;;;;;;;19.55;6.45;;;;;;;25.46;60.29;99361.92;1751157;80;21017;-42
2021/06/25 04:44:02;;;;;;;17.80;7.20;;;;;;;25.48;60.40;99354.66;1743481;80;21120;-42
2021/06/25 04:46:28;;;;;;;14.40;6.10;;;;;;;25.55;60.26;99353.63;1735397;80;20957;-42
2021/06/25 04:48:56;;;;;;;14.00;6.03;;;;;;;25.59;60.51;99347.92;1742851;80;21051;-42
2021/06/25 04:51:23;;;;;;;19.55;6.28;;;;;;;25.66;60.73;99348.38;1728905;80;21519;-42
2021/06/25 04:53:51;;;;;;;14.40;6.42;;;;;;;25.75;61.06;99346.25;1756576;80;21017;-42
2021/06/25 04:56:19;;;;;;;14.65;5.55;;;;;;;25.85;61.15;99347.15;1752532;80;21538;-42
2021/06/25 04:58:46;;;;;;;16.05;5.47;;;;;;;25.95;61.09;99347.30;1741117;80;21334;-42
2021/06/25 05:01:13;;;;;;;19.37;5.70;;;;;;;26.06;59.95;99348.84;1737902;80;20989;-42
2021/06/25 05:03:41;;;;;;;13.22;5.80;;;;;;;26.16;60.00;99347.59;1744995;80;21894;-42
2021/06/25 05:06:08;;;;;;;16.85;5.90;;;;;;;26.26;59.89;99352.70;1754796;80;21017;-42
2021/06/25 05:08:35;;;;;;;19.32;6.20;;;;;;;26.35;59.44;99351.91;1754750;80;21133;-42
2021/06/25 05:11:01;;;;;;;18.32;6.10;;;;;;;26.42;59.25;99354.38;1756642;81;20964;-42
2021/06/25 05:13:28;;;;;;;14.07;5.85;;;;;;;26.50;58.77;99358.36;1746639;80;21495;-42
2021/06/25 05:15:55;;;;;;;20.60;5.90;;;;;;;26.58;58.79;99359.57;1734340;80;21062;-42
2021/06/25 05:18:23;;;;;;;14.05;6.00;;;;;;;26.66;58.08;99362.80;1727556;80;21552;-42
2021/06/25 05:20:51;;;;;;;15.30;6.15;;;;;;;26.76;58.46;99367.87;1753975;80;21127;-42
2021/06/25 05:23:20;;;;;;;18.77;5.97;;;;;;;26.89;58.37;99364.91;1735659;80;21057;-42
2021/06/25 05:25:47;;;;;;;17.57;5.83;;;;;;;26.97;58.58;99371.66;1738087;80;20977;-42
2021/06/25 05:28:13;;;;;;;19.90;6.78;;;;;;;27.06;58.25;99375.05;1748720;80;21495;-42
2021/06/25 05:30:40;;;;;;;15.28;6.20;;;;;;;27.13;57.95;99374.07;1755901;80;21029;-42
2021/06/25 05:33:07;;;;;;;15.63;6.45;;;;;;;27.22;58.15;99379.59;1748928;80;21143;-42
2021/06/25 05:35:34;;;;;;;17.32;6.12;;;;;;;27.30;58.54;99385.59;1755404;80;21505;-42
2021/06/25 05:38:09;;;;;;;15.13;6.33;;;;;;;27.35;58.33;99386.95;1727572;80;21053;-42
2021/06/25 05:40:37;;;;;;;19.10;6.10;;;;;;;27.40;57.88;99394.66;1726406;81;21024;-42
2021/06/25 05:43:04;;;;;;;23.98;6.17;;;;;;;27.39;57.13;99400.08;1741503;81;21013;-42
2021/06/25 05:45:32;;;;;;;15.38;5.50;;;;;;;27.39;57.29;99398.06;1675948;84;21830;-42
2021/06/25 05:47:59;;;;;;;13.18;5.65;;;;;;;27.43;56.87;99396.49;1709550;83;21040;-42
2021/06/25 05:50:27;;;;;;;22.50;6.33;;;;;;;27.51;56.69;99399.09;1701760;83;21606;-42
2021/06/25 05:52:54;;;;;;;23.45;6.30;;;;;;;27.61;56.00;99408.94;1706651;84;21037;-43
2021/06/25 05:55:21;;;;;;;18.17;6.10;;;;;;;27.67;55.49;99402.86;1706061;84;21042;-45
2021/06/25 05:57:48;;;;;;;18.85;6.25;;;;;;;27.74;55.11;99407.32;1702121;84;21156;-45
2021/06/25 06:00:16;;;;;;;22.13;5.67;;;;;;;27.81;56.01;99405.55;1707944;83;21079;-45
2021/06/25 06:02:45;;;;;;;20.40;5.83;;;;;;;27.90;55.57;99416.63;1687661;82;21554;-45
2021/06/25 06:05:11;;;;;;;22.02;6.35;;;;;;;27.96;55.02;99408.53;1697210;83;21047;-45
2021/06/25 06:07:40;;;;;;;18.27;5.08;;;;;;;28.06;55.44;99405.05;1712513;83;21039;-45
2021/06/25 06:10:11;;;;;;;16.37;5.03;;;;;;;28.17;54.18;99405.30;1699853;84;21911;-45
2021/06/25 06:12:38;;;;;;;16.20;5.20;;;;;;;28.28;54.07;99417.27;1692200;84;20996;-45
2021/06/25 06:15:08;;;;;;;17.25;5.65;;;;;;;28.38;54.45;99418.72;1679847;82;21009;-45
2021/06/25 06:17:38;;;;;;;22.73;6.80;;;;;;;28.46;54.99;99422.69;1690686;84;21117;-45
2021/06/25 06:20:07;;;;;;;19.27;5.60;;;;;;;28.52;54.54;99417.34;1685578;84;21173;-45
2021/06/25 06:33:53;;;;;;;21.25;5.37;;;;;;;28.87;51.97;99421.64;1713158;82;21036;-45
2021/06/25 06:36:30;;;;;;;17.92;6.00;;;;;;;28.95;51.97;99425.58;1714586;83;21642;-45
2021/06/25 06:39:00;;;;;;;17.35;5.62;;;;;;;29.05;51.76;99419.91;1712122;83;21028;-45
2021/06/25 06:41:27;;;;;;;14.05;5.03;;;;;;;29.16;51.50;99422.23;1706443;82;21017;-45
2021/06/25 06:43:55;;;;;;;21.02;5.53;;;;;;;29.30;51.91;99426.23;1700950;82;21004;-45
2021/06/25 06:46:22;;;;;;;15.83;5.75;;;;;;;29.41;50.97;99425.03;1703581;83;21484;-45
2021/06/25 06:48:49;;;;;;;21.90;5.65;;;;;;;29.55;50.44;99414.44;1699564;83;21192;-43
2021/06/25 06:51:15;;;;;;;22.45;6.05;;;;;;;29.65;49.45;99411.66;1714943;83;21040;-42
2021/06/25 06:53:43;;;;;;;25.20;5.45;;;;;;;29.76;49.84;99413.20;1753845;80;21073;-42
2021/06/25 06:56:17;;;;;;;25.17;6.28;;;;;;;29.89;50.19;99412.87;1732861;80;20937;-43
2021/06/25 06:58:45;;;;;;;21.12;5.60;;;;;;;29.99;50.00;99414.27;1721433;83;21052;-43
2021/06/25 07:01:12;;;;;;;21.48;5.35;;;;;;;30.06;49.09;99418.67;1722298;80;21212;-43
2021/06/25 07:03:39;;;;;;;31.57;5.45;;;;;;;30.13;48.04;99426.61;1739805;80;21001;-43
2021/06/25 07:06:05;;;;;;;23.22;4.95;;;;;;;30.17;47.90;99422.97;1712596;83;21016;-43
2021/06/25 07:08:32;;;;;;;20.92;5.05;;;;;;;30.25;48.20;99421.30;1700285;83;20981;-43
2021/06/25 07:10:59;;;;;;;16.87;5.05;;;;;;;30.37;48.09;99420.77;1721398;80;21034;-43
2021/06/25 07:13:27;;;;;;;24.70;5.35;;;;;;;30.45;46.69;99418.42;1697754;83;21146;-43
2021/06/25 07:15:55;;;;;;;29.23;5.30;;;;;;;30.51;47.16;99409.49;1693797;83;21037;-43
2021/06/25 07:18:23;;;;;;;25.15;5.22;;;;;;;30.62;46.98;99406.80;1720954;83;21369;-43
2021/06/25 07:20:49;;;;;;;31.70;6.10;;;;;;;30.72;47.59;99404.59;1736634;80;21721;-43
2021/06/25 07:23:17;;;;;;;18.60;4.67;;;;;;;30.82;46.91;99407.98;1724521;80;21100;-43
2021/06/25 07:25:43;;;;;;;21.57;4.83;;;;;;;30.91;45.36;99404.38;1726087;80;21531;-43
2021/06/25 07:28:10;;;;;;;24.00;5.15;;;;;;;31.03;46.63;99408.06;1722795;80;21029;-42
2021/06/25 07:30:37;;;;;;;15.98;4.87;;;;;;;31.16;46.81;99406.23;1686946;83;21099;-43
2021/06/25 07:33:04;;;;;;;21.93;5.30;;;;;;;31.24;47.14;99406.66;1700077;83;21044;-43
2021/06/25 07:35:31;;;;;;;16.32;4.62;;;;;;;31.35;47.04;99415.14;1704236;82;21052;-43
2021/06/25 07:37:58;;;;;;;14.03;4.35;;;;;;;31.46;46.54;99413.81;1714926;82;21519;-43
2021/06/25 07:40:25;;;;;;;17.12;4.50;;;;;;;31.59;43.05;99416.20;1685096;83;21044;-43
2021/06/25 07:42:51;;;;;;;15.43;4.22;;;;;;;31.66;42.57;99424.78;1688476;83;20950;-43
2021/06/25 07:45:18;;;;;;;15.28;4.50;;;;;;;31.68;42.03;99424.39;1673778;84;21538;-43
2021/06/25 07:47:46;;;;;;;17.40;4.35;;;;;;;31.75;42.84;99421.76;1680808;83;21111;-43
2021/06/25 07:50:16;;;;;;;15.83;4.95;;;;;;;31.85;43.01;99424.48;1725491;82;21464;-43
2021/06/25 07:52:44;;;;;;;16.00;4.60;;;;;;;31.93;42.45;99425.52;1721186;80;21033;-43
2021/06/25 07:55:12;;;;;;;18.15;4.58;;;;;;;32.00;43.38;99425.69;1733917;80;21026;-43
2021/06/25 07:57:40;;;;;;;17.42;5.00;;;;;;;32.05;43.16;99425.68;1739460;80;20970;-43
2021/06/25 08:00:13;;;;;;;19.12;4.75;;;;;;;32.12;43.28;99423.83;1746442;81;21034;-43
2021/06/25 08:02:41;;;;;;;18.05;5.10;;;;;;;32.19;43.59;99419.78;1741310;80;21126;-43
2021/06/25 08:05:09;;;;;;;21.02;5.03;;;;;;;32.27;44.45;99412.39;1741327;82;20923;-43
2021/06/25 08:07:35;;;;;;;22.80;5.10;;;;;;;32.34;44.45;99414.05;1738601;80;21555;-43
2021/06/25 08:10:05;;;;;;;14.65;4.85;;;;;;;32.41;44.20;99417.64;1735178;80;21028;-43
2021/06/25 08:12:31;;;;;;;18.30;4.95;;;;;;;32.51;44.25;99420.34;1740481;81;21006;-43
2021/06/25 08:14:58;;;;;;;18.52;4.95;;;;;;;32.59;44.50;99419.33;1718647;81;21133;-43
2021/06/25 08:17:26;;;;;;;14.58;5.35;;;;;;;32.65;44.25;99424.98;1720358;80;20949;-43
2021/06/25 08:19:53;;;;;;;16.42;4.55;;;;;;;32.70;43.92;99420.01;1723715;80;21035;-43
2021/06/25 08:22:20;;;;;;;12.13;4.40;;;;;;;32.81;44.42;99413.64;1736447;80;21634;-43
2021/06/25 08:24:47;;;;;;;17.92;4.15;;;;;;;32.94;43.35;99417.45;1724687;80;21033;-43
2021/06/25 08:27:14;;;;;;;13.30;4.28;;;;;;;33.05;42.89;99423.08;1743213;80;21556;-43
2021/06/25 08:29:41;;;;;;;12.68;4.70;;;;;;;33.14;41.70;99418.59;1741512;80;20931;-43
2021/06/25 08:32:08;;;;;;;17.57;4.87;;;;;;;33.21;40.73;99416.58;1725276;80;20978;-43
2021/06/25 08:34:34;;;;;;;23.27;4.90;;;;;;;33.25;39.97;99410.05;1742948;81;21049;-43
2021/06/25 08:37:02;;;;;;;14.45;4.42;;;;;;;33.28;38.18;99414.63;1725513;80;21641;-43
2021/06/25 08:39:30;;;;;;;21.75;4.55;;;;;;;33.35;38.32;99409.27;1759091;81;21041;-43
2021/06/25 08:42:04;;;;;;;16.13;3.90;;;;;;;33.48;39.39;99408.08;1735703;80;20977;-43
2021/06/25 08:44:37;;;;;;;14.83;3.62;;;;;;;33.60;38.57;99403.94;1734814;80;21037;-43
2021/06/25 08:47:05;;;;;;;14.35;3.62;;;;;;;33.74;36.77;99402.78;1746848;81;21603;-43
2021/06/25 08:49:35;;;;;;;13.78;3.50;;;;;;;33.83;35.89;99394.81;1743549;82;21002;-43
2021/06/25 08:52:05;;;;;;;16.70;2.92;;;;;;;33.90;34.07;99397.07;1747484;80;21127;-43
2021/06/25 08:54:34;;;;;;;9.28;3.50;;;;;;;33.96;32.92;99392.19;1746208;80;20902;-43
2021/06/25 08:57:04;;;;;;;12.73;4.00;;;;;;;34.07;35.15;99391.37;1744791;80;28246;-43
2021/06/25 08:59:30;;;;;;;11.03;3.75;;;;;;;34.16;34.02;99386.07;1714808;83;20968;-43
2021/06/25 09:01:58;;;;;;;15.03;3.52;;;;;;;34.20;34.32;99384.53;1714134;83;21036;-43
2021/06/25 09:04:37;;;;;;;10.65;3.00;;;;;;;34.26;34.92;99379.64;1700204;83;21932;-43
2021/06/25 09:07:07;;;;;;;12.60;3.33;;;;;;;34.15;33.72;99351.53;1703820;84;21517;-43
2021/06/25 09:09:44;;;;;;;8.98;3.35;;;;;;;34.37;35.04;99385.84;1716261;83;21004;-43
2021/06/25 09:12:23;;;;;;;14.28;3.58;;;;;;;34.40;35.39;99385.55;1694198;83;20989;-43
2021/06/25 09:15:07;;;;;;;14.28;3.45;;;;;;;34.39;33.54;99381.84;1708676;83;21060;-43
2021/06/25 09:17:55;;;;;;;11.10;3.15;;;;;;;34.38;33.95;99390.16;1718815;82;21514;-43
2021/06/25 09:20:37;;;;;;;12.03;3.55;;;;;;;34.40;31.41;99389.78;1694752;83;21013;-43
2021/06/25 09:23:10;;;;;;;11.88;3.17;;;;;;;34.39;32.22;99392.47;1678877;85;20997;-43
2021/06/25 09:26:09;;;;;;;11.95;2.87;;;;;;;34.43;30.98;99393.58;1691008;83;21022;-43
2021/06/25 09:28:44;;;;;;;13.65;3.45;;;;;;;34.44;31.83;99394.48;1692146;82;20989;-46
2021/06/25 09:31:23;;;;;;;11.95;3.37;;;;;;;34.43;31.68;99387.95;1686484;82;21213;-43
2021/06/25 09:33:55;;;;;;;12.53;3.50;;;;;;;34.45;32.20;99389.62;1690227;82;21513;-43
2021/06/25 09:36:32;;;;;;;12.40;3.05;;;;;;;34.54;31.23;99386.47;1680902;82;20942;-43
2021/06/25 09:39:12;;;;;;;14.05;3.02;;;;;;;34.62;31.19;99381.02;1690991;83;21509;-43
2021/06/25 09:41:44;;;;;;;10.08;3.10;;;;;;;34.69;29.92;99375.63;1700432;84;26887;-43
2021/06/25 09:44:18;;;;;;;15.53;3.12;;;;;;;34.74;30.94;99367.78;1690417;84;21795;-43
2021/06/25 09:46:48;;;;;;;9.20;2.60;;;;;;;34.86;32.06;99367.78;1692997;82;21880;-43
2021/06/25 09:49:19;;;;;;;8.60;2.40;;;;;;;35.03;30.38;99357.01;1683567;82;21029;-43
2021/06/25 09:51:56;;;;;;;10.85;2.95;;;;;;;35.21;29.83;99357.73;1693271;82;21072;-43
2021/06/25 09:54:23;;;;;;;15.40;3.45;;;;;;;35.40;30.49;99361.36;1699622;83;21069;-43
2021/06/25 09:57:04;;;;;;;9.03;3.10;;;;;;;35.57;30.41;99358.36;1706843;83;21322;-43
2021/06/25 09:59:38;;;;;;;10.70;3.10;;;;;;;35.67;30.67;99354.67;1701506;83;21058;-43
2021/06/25 10:02:27;;;;;;;8.28;2.83;;;;;;;35.78;31.03;99344.53;1704919;82;20993;-43
2021/06/25 10:05:02;;;;;;;13.70;3.50;;;;;;;35.91;30.18;99350.25;1702230;82;21515;-43
2021/06/25 10:07:31;;;;;;;12.53;3.30;;;;;;;36.03;30.53;99348.78;1697275;83;21006;-43
2021/06/25 10:10:12;;;;;;;8.95;3.12;;;;;;;36.14;29.90;99341.59;1701016;83;21781;-44
2021/06/25 10:12:43;;;;;;;11.80;3.42;;;;;;;36.27;30.81;99337.41;1714537;82;20996;-43
2021/06/25 10:15:12;;;;;;;17.82;3.55;;;;;;;36.34;30.55;99333.20;1701153;82;21033;-43
2021/06/25 10:17:40;;;;;;;8.65;3.22;;;;;;;36.41;31.08;99319.86;1703216;82;21096;-43
2021/06/25 10:20:12;;;;;;;10.78;3.27;;;;;;;36.49;30.75;99331.42;1705228;83;21068;-43
2021/06/25 10:22:41;;;;;;;10.00;2.80;;;;;;;36.62;30.08;99329.30;1715547;83;21815;-44
2021/06/25 10:25:11;;;;;;;9.68;2.87;;;;;;;36.75;30.99;99337.79;1715947;82;20977;-43
2021/06/25 10:27:38;;;;;;;10.08;3.22;;;;;;;36.88;29.68;99339.25;1715753;83;21581;-43
2021/06/25 10:30:06;;;;;;;10.05;2.70;;;;;;;37.07;29.68;99341.21;1698801;83;21006;-44
2021/06/25 10:32:38;;;;;;;9.00;2.95;;;;;;;37.27;29.83;99342.02;1717352;82;21054;-43
2021/06/25 10:35:11;;;;;;;13.65;2.95;;;;;;;37.48;28.16;99335.02;1720468;83;21124;-44
2021/06/25 10:37:38;;;;;;;12.47;3.22;;;;;;;37.69;27.52;99341.55;1720486;83;21890;-44
2021/06/25 10:40:25;;;;;;;7.87;2.47;;;;;;;37.89;27.59;99338.02;1700800;82;21036;-43
2021/06/25 10:42:55;;;;;;;8.65;2.60;;;;;;;38.08;26.01;99339.29;1693624;82;21056;-43
2021/06/25 10:45:42;;;;;;;13.20;3.10;;;;;;;38.26;26.29;99348.25;1706192;82;21073;-44
2021/06/25 10:48:08;;;;;;;8.65;2.62;;;;;;;38.43;24.93;99337.30;1697759;82;21158;-43
2021/06/25 10:50:36;;;;;;;8.58;2.67;;;;;;;38.65;24.97;99334.57;1719523;82;21084;-44
2021/06/25 10:53:13;;;;;;;11.08;3.00;;;;;;;38.83;24.81;99334.98;1696545;82;20984;-44
2021/06/25 10:55:47;;;;;;;8.60;2.40;;;;;;;38.98;23.36;99328.70;1686005;82;21071;-44
2021/06/25 10:58:25;;;;;;;9.35;2.52;;;;;;;39.07;22.62;99324.70;1746890;80;21005;-44
2021/06/25 11:00:57;;;;;;;9.00;2.45;;;;;;;39.11;22.01;99318.03;1741533;80;21074;-44
2021/06/25 11:03:41;;;;;;;8.65;2.65;;;;;;;39.12;22.03;99326.62;1738971;80;21489;-43
2021/06/25 11:06:36;;;;;;;5.87;2.20;;;;;;;39.22;22.67;99324.03;1740886;81;21510;-43
2021/06/25 11:09:07;;;;;;;11.00;2.83;;;;;;;39.42;22.92;99321.80;1742017;82;21480;-43
2021/06/25 11:11:33;;;;;;;6.62;2.30;;;;;;;39.72;22.27;99328.93;1736489;80;21050;-44
2021/06/25 11:14:02;;;;;;;7.92;2.62;;;;;;;39.98;20.81;99328.67;1724862;80;21871;-44
2021/06/25 11:16:29;;;;;;;9.43;2.03;;;;;;;40.15;20.80;99325.29;1742307;80;21638;-44
2021/06/25 11:18:59;;;;;;;5.60;2.33;;;;;;;40.37;20.79;99320.34;1742312;81;21075;-44
2021/06/25 11:21:42;;;;;;;7.67;2.47;;;;;;;40.78;18.20;99314.95;1743289;81;21619;-44
2021/06/25 11:24:09;;;;;;;6.42;2.12;;;;;;;40.78;18.20;99314.95;1743004;81;21509;-44
2021/06/25 11:26:48;;;;;;;12.78;2.37;;;;;;;40.85;19.25;99314.86;1736423;81;21119;-44
2021/06/25 11:29:14;;;;;;;9.85;2.47;;;;;;;41.06;18.64;99319.67;1735558;81;20969;-44
2021/06/25 11:31:43;;;;;;;10.05;2.20;;;;;;;41.19;18.46;99312.36;1742715;81;21023;-44
2021/06/25 11:34:10;;;;;;;8.23;2.25;;;;;;;41.29;17.40;99316.13;1741908;81;21021;-44
2021/06/25 11:36:51;;;;;;;9.28;2.20;;;;;;;41.29;17.03;99313.95;1763339;81;21602;-44
2021/06/25 11:39:32;;;;;;;8.10;2.47;;;;;;;41.27;16.69;99308.06;1732915;82;21076;-44
2021/06/25 11:42:09;;;;;;;7.90;2.27;;;;;;;41.37;18.48;99309.73;1727521;81;21563;-44
2021/06/25 11:44:49;;;;;;;7.80;2.10;;;;;;;41.69;18.73;99305.44;1738887;81;20973;-44
2021/06/25 11:47:22;;;;;;;8.05;2.47;;;;;;;42.01;16.76;99304.08;1697376;83;21097;-44
2021/06/25 11:52:31;;;;;;;9.48;3.20;;;;;;;42.64;17.86;99293.16;1706581;83;21294;-44